Time;durP1;ratioP1;P1;durP2;ratioP2;P2;SDS_P1;SDS_P2;PMS_P1;PMS_P2;Temp;Humidity;BMP_temperature;BMP_pressure;BME280_temperature;BME280_humidity;BME280_pressure;Samples;Min_cycle;Max_cycle;Signal;HPM_P1;HPM_P2
2024/02/17 00:00:22;;;;;;;16.80;7.78;;;;;;;3.50;72.47;94619.97;5004615;28;20230;-69
2024/02/17 00:02:48;;;;;;;14.65;7.45;;;;;;;3.44;72.69;94620.16;5004487;28;20093;-69
2024/02/17 00:05:13;;;;;;;20.42;8.40;;;;;;;3.44;72.60;94626.25;5004558;28;20050;-69
2024/02/17 00:07:39;;;;;;;15.90;7.65;;;;;;;3.39;72.66;94628.81;5004534;28;20320;-69
2024/02/17 00:10:05;;;;;;;18.42;8.80;;;;;;;3.39;72.57;94624.34;5004383;28;20022;-69
2024/02/17 00:12:30;;;;;;;16.15;7.85;;;;;;;3.33;72.92;94622.69;5004687;28;20069;-69
2024/02/17 00:14:56;;;;;;;15.50;7.95;;;;;;;3.33;72.93;94630.59;5004480;28;20073;-69
2024/02/17 00:17:21;;;;;;;17.15;8.82;;;;;;;3.29;72.94;94621.59;5004271;28;20375;-69
2024/02/17 00:19:47;;;;;;;20.55;7.57;;;;;;;3.29;73.14;94620.81;5004410;28;20317;-68
2024/02/17 00:22:14;;;;;;;18.00;8.90;;;;;;;3.27;73.30;94613.16;5004287;28;20019;-69
2024/02/17 00:24:40;;;;;;;15.88;7.32;;;;;;;3.28;73.31;94619.22;5004219;28;20088;-69
2024/02/17 00:27:05;;;;;;;17.00;7.95;;;;;;;3.29;73.25;94618.19;5004022;28;20037;-69
2024/02/17 00:29:31;;;;;;;16.88;8.60;;;;;;;3.29;73.27;94623.44;5004332;28;20026;-69
2024/02/17 00:31:56;;;;;;;17.23;8.52;;;;;;;3.29;73.19;94618.19;5004126;28;20043;-69
2024/02/17 00:34:23;;;;;;;19.73;9.35;;;;;;;3.24;73.50;94631.28;5004062;28;20193;-69
2024/02/17 00:36:49;;;;;;;19.08;8.23;;;;;;;3.25;73.48;94623.16;5004107;28;20018;-69
2024/02/17 00:39:14;;;;;;;19.15;9.10;;;;;;;3.21;73.50;94614.16;5003897;28;20332;-69
2024/02/17 00:41:41;;;;;;;31.10;11.77;;;;;;;3.22;73.52;94619.19;5003765;28;20325;-68
2024/02/17 00:44:06;;;;;;;37.50;12.77;;;;;;;3.22;73.61;94618.38;5003340;28;20018;-69
2024/02/17 00:46:32;;;;;;;27.45;11.07;;;;;;;3.15;74.02;94608.03;5003800;28;20030;-69
2024/02/17 00:48:57;;;;;;;25.25;11.30;;;;;;;3.13;74.08;94619.84;5003994;28;20042;-69
2024/02/17 00:51:23;;;;;;;30.50;11.45;;;;;;;3.15;73.88;94623.81;5003923;28;20018;-69
2024/02/17 00:53:49;;;;;;;23.40;10.27;;;;;;;3.15;73.97;94629.09;5003516;28;20184;-69
2024/02/17 00:56:15;;;;;;;17.95;8.57;;;;;;;3.17;74.13;94619.09;5003705;28;20026;-69
2024/02/17 00:58:40;;;;;;;26.40;10.55;;;;;;;3.17;74.08;94616.47;5003587;28;20105;-68
2024/02/17 01:01:06;;;;;;;21.15;9.00;;;;;;;3.19;74.01;94626.78;5003472;28;20037;-69
2024/02/17 01:03:32;;;;;;;19.45;9.32;;;;;;;3.19;74.28;94632.81;5003623;28;20033;-69
2024/02/17 01:05:57;;;;;;;17.70;7.95;;;;;;;3.21;74.13;94622.06;5003623;28;20049;-69
2024/02/17 01:08:23;;;;;;;19.48;9.30;;;;;;;3.22;73.99;94621.03;5003705;28;20025;-69
2024/02/17 01:10:48;;;;;;;16.20;8.40;;;;;;;3.19;74.20;94626.78;5003313;28;20053;-69
2024/02/17 01:13:14;;;;;;;17.30;7.80;;;;;;;3.15;74.08;94617.78;5003551;28;20335;-69
2024/02/17 01:15:40;;;;;;;16.85;8.30;;;;;;;3.10;74.07;94617.72;5003452;28;20264;-69
2024/02/17 01:18:05;;;;;;;18.02;8.38;;;;;;;3.07;73.64;94621.63;5003524;28;20022;-69
2024/02/17 01:20:31;;;;;;;17.98;7.90;;;;;;;3.00;74.25;94626.31;5003596;28;20022;-69
2024/02/17 01:22:56;;;;;;;20.50;8.30;;;;;;;2.99;74.02;94624.72;5003034;28;20033;-69
2024/02/17 01:25:23;;;;;;;17.63;7.95;;;;;;;2.96;74.06;94615.47;5003314;28;20118;-69
2024/02/17 01:27:49;;;;;;;17.17;9.18;;;;;;;2.96;74.47;94618.09;5003207;28;20018;-69
2024/02/17 01:30:14;;;;;;;21.70;9.13;;;;;;;2.99;74.56;94625.53;5003286;28;20094;-69
2024/02/17 01:32:40;;;;;;;17.20;9.10;;;;;;;2.97;74.42;94624.97;5003284;28;20018;-69
2024/02/17 01:35:05;;;;;;;20.17;9.38;;;;;;;2.92;74.78;94624.91;5003287;28;20014;-69
2024/02/17 01:37:31;;;;;;;20.52;9.50;;;;;;;2.90;75.19;94618.28;5003448;28;20018;-69
2024/02/17 01:39:56;;;;;;;19.25;8.90;;;;;;;2.89;75.12;94625.41;5003074;28;20213;-69
2024/02/17 01:42:22;;;;;;;18.90;8.80;;;;;;;2.88;75.17;94623.00;5003188;28;20037;-69
2024/02/17 01:44:47;;;;;;;21.98;9.93;;;;;;;2.83;75.50;94623.75;5003009;28;20026;-69
2024/02/17 01:47:13;;;;;;;18.25;8.30;;;;;;;2.76;75.59;94626.56;5003262;28;20025;-70
2024/02/17 01:49:39;;;;;;;17.77;8.60;;;;;;;2.76;75.25;94617.88;5003292;28;20045;-69
2024/02/17 01:52:05;;;;;;;18.27;10.18;;;;;;;2.76;75.14;94616.03;5003151;28;20030;-69
2024/02/17 01:54:32;;;;;;;19.52;8.45;;;;;;;2.76;74.94;94613.38;5003287;28;20038;-69
2024/02/17 01:56:59;;;;;;;17.48;8.27;;;;;;;2.71;74.83;94615.19;5007253;28;20045;-69
2024/02/17 01:59:26;;;;;;;17.05;8.35;;;;;;;2.70;74.83;94613.59;5006430;28;20046;-70
2024/02/17 02:01:53;;;;;;;16.23;8.13;;;;;;;2.73;74.61;94621.78;5005847;28;20026;-69
2024/02/17 02:04:19;;;;;;;18.63;8.75;;;;;;;2.75;75.50;94614.44;5006838;28;20089;-69
2024/02/17 02:06:44;;;;;;;15.95;8.45;;;;;;;2.75;75.72;94613.66;5006484;28;20022;-69
2024/02/17 02:09:10;;;;;;;18.50;8.60;;;;;;;2.70;76.12;94616.22;5006073;28;20073;-69
2024/02/17 02:11:36;;;;;;;18.92;9.00;;;;;;;2.70;76.16;94618.84;5006548;28;20313;-69
2024/02/17 02:14:15;;;;;;;16.83;8.38;;;;;;;2.74;75.84;94614.69;5006694;28;20093;-69
2024/02/17 02:16:41;;;;;;;25.92;7.57;;;;;;;2.71;76.10;94618.59;5006815;28;20257;-69
2024/02/17 02:19:07;;;;;;;18.20;8.52;;;;;;;2.72;75.98;94624.66;5006577;28;20040;-69
2024/02/17 02:21:37;;;;;;;15.00;7.97;;;;;;;2.72;75.91;94624.66;5006559;28;20042;-69
2024/02/17 02:24:05;;;;;;;17.40;7.80;;;;;;;2.70;75.88;94618.84;5006437;28;20026;-69
2024/02/17 02:26:31;;;;;;;15.93;8.27;;;;;;;2.65;76.13;94632.75;5005822;28;20045;-69
2024/02/17 02:28:57;;;;;;;20.05;9.30;;;;;;;2.65;76.38;94632.75;5006448;28;20305;-69
2024/02/17 02:31:23;;;;;;;22.60;9.77;;;;;;;2.61;76.77;94627.16;5006427;28;20034;-69
2024/02/17 02:33:50;;;;;;;18.63;7.93;;;;;;;2.63;76.43;94623.50;5006434;28;20057;-69
2024/02/17 02:36:16;;;;;;;17.70;8.77;;;;;;;2.65;76.57;94632.75;5006210;28;20026;-69
2024/02/17 02:38:45;;;;;;;18.50;8.48;;;;;;;2.68;76.13;94634.88;5006319;28;20033;-69
2024/02/17 02:41:11;;;;;;;18.83;9.18;;;;;;;2.66;76.18;94633.53;5006118;28;20049;-69
2024/02/17 02:43:37;;;;;;;18.50;8.90;;;;;;;2.66;76.10;94636.16;5006167;28;20045;-69
2024/02/17 02:46:03;;;;;;;19.52;9.07;;;;;;;2.63;76.52;94626.94;5006087;28;20022;-69
2024/02/17 02:48:28;;;;;;;20.63;8.93;;;;;;;2.61;76.47;94629.00;5006275;28;20088;-69
2024/02/17 02:50:53;;;;;;;17.42;8.85;;;;;;;2.59;76.89;94626.63;5006115;28;20041;-69
2024/02/17 02:53:19;;;;;;;23.70;11.02;;;;;;;2.58;76.78;94630.28;5005719;28;20042;-69
2024/02/17 02:55:44;;;;;;;21.00;8.70;;;;;;;2.61;76.65;94623.75;5005770;28;20026;-69
2024/02/17 02:58:10;;;;;;;19.70;8.85;;;;;;;2.58;76.64;94634.75;5005908;28;20030;-69
2024/02/17 03:00:35;;;;;;;15.95;7.55;;;;;;;2.57;76.07;94633.97;5006052;28;20204;-69
2024/02/17 03:03:01;;;;;;;15.80;7.78;;;;;;;2.58;75.65;94642.66;5006023;28;20037;-69
2024/02/17 03:05:27;;;;;;;19.95;7.18;;;;;;;2.54;75.57;94636.28;5005330;28;20072;-69
2024/02/17 03:07:52;;;;;;;17.40;8.02;;;;;;;2.54;75.39;94642.31;5005667;28;20573;-69
2024/02/17 03:10:18;;;;;;;20.17;8.35;;;;;;;2.56;75.34;94648.16;5005624;28;20034;-69
2024/02/17 03:12:43;;;;;;;13.82;7.45;;;;;;;2.55;75.46;94651.81;5005526;28;20360;-69
2024/02/17 03:15:09;;;;;;;15.18;7.25;;;;;;;2.52;75.45;94648.88;5005657;28;20093;-69
2024/02/17 03:17:36;;;;;;;19.75;8.50;;;;;;;2.54;75.68;94652.84;5005555;28;20030;-69
2024/02/17 03:20:05;;;;;;;19.42;9.50;;;;;;;2.50;75.69;94649.13;5005577;28;20049;-69
2024/02/17 03:22:31;;;;;;;17.63;9.00;;;;;;;2.48;75.84;94651.19;5005567;28;20050;-68
2024/02/17 03:24:57;;;;;;;18.65;8.20;;;;;;;2.49;75.84;94644.13;5005410;28;20038;-69
2024/02/17 03:27:22;;;;;;;19.83;8.32;;;;;;;2.47;75.79;94644.34;5005162;28;20368;-69
2024/02/17 03:29:47;;;;;;;16.25;8.60;;;;;;;2.47;75.89;94651.47;5005283;28;20026;-68
2024/02/17 03:32:13;;;;;;;27.05;8.20;;;;;;;2.42;75.80;94649.53;5005198;28;20022;-69
2024/02/17 03:34:38;;;;;;;13.75;8.45;;;;;;;2.39;75.79;94647.41;5005210;28;20257;-68
2024/02/17 03:37:04;;;;;;;17.27;7.68;;;;;;;2.37;75.69;94652.09;5005129;28;20041;-69
2024/02/17 03:39:30;;;;;;;17.42;7.78;;;;;;;2.35;75.45;94651.56;5005259;28;20049;-69
2024/02/17 03:41:55;;;;;;;14.20;7.75;;;;;;;2.29;75.36;94642.78;5004769;28;20038;-69
2024/02/17 03:44:21;;;;;;;17.92;7.82;;;;;;;2.25;75.49;94646.16;5004960;28;20033;-68
2024/02/17 03:46:46;;;;;;;16.25;8.05;;;;;;;2.22;75.55;94647.44;5005082;28;20030;-69
2024/02/17 03:49:11;;;;;;;14.63;7.40;;;;;;;2.15;75.77;94639.69;5005039;28;20202;-69
2024/02/17 03:51:37;;;;;;;20.40;8.15;;;;;;;2.19;75.83;94645.28;5004782;28;20032;-69
2024/02/17 03:54:03;;;;;;;16.42;8.50;;;;;;;2.17;75.88;94644.72;5004707;28;20053;-68
2024/02/17 03:56:28;;;;;;;14.57;7.72;;;;;;;2.18;75.44;94641.84;5004955;28;20026;-68
2024/02/17 03:58:54;;;;;;;14.18;7.50;;;;;;;2.15;75.79;94642.31;5004486;28;20130;-69
2024/02/17 04:01:20;;;;;;;14.73;7.88;;;;;;;2.17;75.65;94645.50;5004674;28;20090;-69
2024/02/17 04:03:46;;;;;;;15.25;7.30;;;;;;;2.15;75.71;94642.31;5004785;28;20046;-70
2024/02/17 04:06:12;;;;;;;13.32;6.95;;;;;;;2.12;76.10;94637.56;5004616;28;20025;-68
2024/02/17 04:08:38;;;;;;;12.55;6.78;;;;;;;2.09;76.19;94648.53;5004383;28;20093;-68
2024/02/17 04:11:03;;;;;;;12.10;6.38;;;;;;;2.08;76.36;94640.91;5004497;28;20331;-68
2024/02/17 04:13:29;;;;;;;12.45;7.22;;;;;;;2.04;76.59;94642.44;5004534;28;20038;-68
2024/02/17 04:15:54;;;;;;;14.63;7.93;;;;;;;2.04;76.65;94643.22;5004185;28;20022;-69
2024/02/17 04:18:20;;;;;;;13.95;7.68;;;;;;;2.06;76.47;94637.72;5003712;28;20023;-68
2024/02/17 04:20:47;;;;;;;17.75;8.15;;;;;;;2.04;76.40;94642.44;5004318;28;20026;-68
2024/02/17 04:23:13;;;;;;;14.15;8.30;;;;;;;2.04;76.30;94645.06;5004187;28;20029;-69
2024/02/17 04:25:41;;;;;;;18.23;8.65;;;;;;;2.06;77.08;94633.25;5004249;28;20022;-69
2024/02/17 04:28:07;;;;;;;23.67;9.35;;;;;;;2.07;77.35;94631.41;5004141;28;20025;-68
2024/02/17 04:30:33;;;;;;;16.63;8.70;;;;;;;2.03;77.42;94633.72;5004038;28;20085;-69
2024/02/17 04:32:59;;;;;;;18.00;8.80;;;;;;;1.94;77.55;94635.19;5004170;28;20042;-69
2024/02/17 04:35:25;;;;;;;14.63;8.40;;;;;;;1.87;77.82;94627.44;5004191;28;20814;-69
2024/02/17 04:37:51;;;;;;;18.38;8.35;;;;;;;1.82;78.02;94635.25;5003983;28;20036;-68
2024/02/17 04:40:17;;;;;;;18.98;9.25;;;;;;;1.84;78.18;94635.03;5003950;28;20034;-69
2024/02/17 04:42:42;;;;;;;20.42;9.75;;;;;;;1.82;78.34;94634.47;5003839;28;20138;-68
2024/02/17 04:45:09;;;;;;;16.80;7.93;;;;;;;1.85;78.26;94641.84;5003714;28;20340;-69
2024/02/17 04:47:34;;;;;;;17.65;9.13;;;;;;;1.86;78.24;94640.84;5003787;28;20057;-68
2024/02/17 04:50:00;;;;;;;16.85;7.97;;;;;;;1.85;78.07;94639.22;5003858;28;20034;-69
2024/02/17 04:52:25;;;;;;;21.23;9.45;;;;;;;1.90;78.05;94637.47;5003784;28;20033;-69
2024/02/17 04:54:51;;;;;;;17.77;8.38;;;;;;;1.92;78.21;94648.56;5003456;28;20133;-68
2024/02/17 04:57:17;;;;;;;21.08;9.50;;;;;;;1.92;78.16;94645.13;5003657;28;20054;-68
2024/02/17 04:59:43;;;;;;;20.65;9.27;;;;;;;1.87;78.14;94645.03;5003697;28;20252;-68
2024/02/17 05:02:09;;;;;;;14.27;7.80;;;;;;;1.89;77.99;94653.50;5003597;28;20080;-69
2024/02/17 05:04:34;;;;;;;17.98;8.57;;;;;;;1.88;77.87;94657.16;5003421;28;20026;-69
2024/02/17 05:06:59;;;;;;;19.13;9.75;;;;;;;1.89;77.96;94656.91;5003700;28;20060;-69
2024/02/17 05:09:25;;;;;;;17.88;8.70;;;;;;;1.91;77.86;94656.69;5003529;28;20018;-69
2024/02/17 05:11:51;;;;;;;18.15;9.40;;;;;;;1.92;77.42;94660.91;5003398;28;20050;-68
2024/02/17 05:14:17;;;;;;;27.33;12.55;;;;;;;1.95;77.37;94663.03;5003377;28;20026;-68
2024/02/17 05:16:45;;;;;;;29.15;12.10;;;;;;;1.91;77.31;94659.31;5003576;28;20085;-69
2024/02/17 05:19:12;;;;;;;31.33;12.73;;;;;;;1.85;77.37;94657.63;5003328;28;20026;-69
2024/02/17 05:21:38;;;;;;;30.50;13.63;;;;;;;1.76;77.38;94652.75;5003099;28;20034;-69
2024/02/17 05:24:04;;;;;;;27.60;12.52;;;;;;;1.79;77.25;94651.50;5003429;28;20331;-69
2024/02/17 05:26:33;;;;;;;21.52;11.07;;;;;;;1.79;77.20;94652.31;5003640;28;20026;-69
2024/02/17 05:28:59;;;;;;;21.67;11.07;;;;;;;1.77;77.46;94659.63;5003447;28;20030;-69
2024/02/17 05:31:26;;;;;;;25.02;11.38;;;;;;;1.79;77.33;94662.81;5003259;28;20034;-69
2024/02/17 05:33:52;;;;;;;21.25;10.05;;;;;;;1.79;77.13;94668.06;5003001;28;20045;-69
2024/02/17 05:36:17;;;;;;;18.08;8.57;;;;;;;1.75;77.26;94663.50;5003289;28;20240;-69
2024/02/17 05:38:43;;;;;;;18.75;9.13;;;;;;;1.74;77.38;94665.34;5003298;28;20069;-69
2024/02/17 05:41:08;;;;;;;18.80;8.75;;;;;;;1.75;77.56;94669.59;5003132;28;20018;-69
2024/02/17 05:43:33;;;;;;;14.02;7.95;;;;;;;1.79;77.74;94681.22;5002904;28;20385;-69
2024/02/17 05:45:59;;;;;;;15.50;8.00;;;;;;;1.79;78.00;94681.22;5003264;28;20057;-69
2024/02/17 05:48:24;;;;;;;16.92;8.93;;;;;;;1.84;78.06;94692.84;5003108;28;20128;-68
2024/02/17 05:50:50;;;;;;;17.92;8.98;;;;;;;1.85;78.25;94694.44;5002982;28;20022;-69
2024/02/17 05:53:15;;;;;;;22.02;8.55;;;;;;;1.95;78.05;94690.13;5002907;28;20029;-69
2024/02/17 05:55:41;;;;;;;20.08;8.95;;;;;;;1.96;77.97;94696.22;5002963;28;20253;-69
2024/02/17 05:58:06;;;;;;;17.58;8.15;;;;;;;1.94;78.05;94693.81;5003133;28;20085;-69
2024/02/17 06:00:31;;;;;;;20.02;9.27;;;;;;;2.01;78.19;94701.53;5003238;28;20344;-69
2024/02/17 06:02:57;;;;;;;20.23;10.52;;;;;;;2.08;78.41;94709.28;5002885;28;20022;-69
2024/02/17 06:05:22;;;;;;;22.35;10.32;;;;;;;2.11;78.61;94693.81;5003018;28;20030;-69
2024/02/17 06:07:47;;;;;;;18.52;9.88;;;;;;;2.16;78.46;94699.16;5002785;28;20087;-69
2024/02/17 06:10:13;;;;;;;25.63;9.43;;;;;;;2.24;78.26;94695.34;5002944;28;20030;-69
2024/02/17 06:12:39;;;;;;;15.00;7.88;;;;;;;2.32;77.75;94694.13;5002872;28;20098;-69
2024/02/17 06:15:05;;;;;;;19.42;9.57;;;;;;;2.36;77.70;94708.38;5002999;28;20052;-69
2024/02/17 06:17:32;;;;;;;19.50;10.40;;;;;;;2.42;77.44;94707.41;5002921;28;20018;-69
2024/02/17 06:22:42;;;;;;;23.25;9.85;;;;;;;2.49;77.20;94718.59;5002779;28;20077;-69
2024/02/17 06:25:08;;;;;;;21.08;9.80;;;;;;;2.51;77.25;94716.50;5002897;28;20026;-69
2024/02/17 06:27:33;;;;;;;20.45;10.27;;;;;;;2.56;76.96;94711.31;5002861;28;20064;-69
2024/02/17 06:29:59;;;;;;;21.88;10.27;;;;;;;2.50;77.09;94720.16;5002885;28;20272;-69
2024/02/17 06:32:25;;;;;;;31.85;11.63;;;;;;;2.47;77.46;94709.34;5002526;28;20093;-69
2024/02/17 06:34:50;;;;;;;30.65;14.02;;;;;;;2.45;77.50;94725.38;5002566;28;20190;-69
2024/02/17 06:37:16;;;;;;;34.80;15.63;;;;;;;2.47;77.16;94728.56;5002777;28;20336;-69
2024/02/17 06:39:41;;;;;;;32.55;14.85;;;;;;;2.45;77.44;94732.47;5002771;28;20030;-69
2024/02/17 06:42:07;;;;;;;37.70;16.90;;;;;;;2.36;77.56;94734.69;5005031;28;20026;-69
2024/02/17 06:44:32;;;;;;;37.70;17.63;;;;;;;2.33;77.81;94741.25;5006346;28;20330;-69
2024/02/17 06:46:58;;;;;;;28.55;15.65;;;;;;;2.30;77.87;94738.28;5006361;28;20045;-69
2024/02/17 06:49:23;;;;;;;33.97;16.27;;;;;;;2.33;77.92;94743.06;5006180;28;20018;-69
2024/02/17 06:51:49;;;;;;;41.58;18.15;;;;;;;2.36;77.71;94739.94;5005882;28;20045;-69
2024/02/17 06:54:14;;;;;;;34.65;17.95;;;;;;;2.40;77.71;94744.53;5005739;28;20038;-69
2024/02/17 06:56:40;;;;;;;34.85;17.75;;;;;;;2.37;77.98;94744.19;5005941;28;20022;-69
2024/02/17 06:59:05;;;;;;;39.03;16.95;;;;;;;2.49;77.90;94742.28;5006044;28;20022;-69
2024/02/17 07:01:30;;;;;;;42.95;17.10;;;;;;;2.57;77.74;94743.72;5005916;28;20034;-69
2024/02/17 07:03:56;;;;;;;35.83;17.00;;;;;;;2.65;77.44;94747.78;5005712;28;20376;-69
2024/02/17 07:06:22;;;;;;;48.72;17.27;;;;;;;2.73;77.43;94744.72;5005586;28;20317;-71
2024/02/17 07:08:48;;;;;;;44.83;18.42;;;;;;;2.80;77.41;94740.06;5005538;28;20030;-68
2024/02/17 07:11:14;;;;;;;44.55;17.45;;;;;;;2.90;77.17;94742.84;5005610;28;20073;-68
2024/02/17 07:13:42;;;;;;;34.15;17.77;;;;;;;3.00;77.11;94755.38;5005613;28;20023;-68
2024/02/17 07:16:08;;;;;;;46.75;18.75;;;;;;;3.12;76.65;94756.03;5005510;28;20034;-69
2024/02/17 07:18:33;;;;;;;34.97;17.55;;;;;;;3.23;76.59;94746.44;5005581;28;20057;-68
2024/02/17 07:20:59;;;;;;;30.05;15.07;;;;;;;3.32;76.30;94744.19;5005548;28;20331;-69
2024/02/17 07:23:28;;;;;;;36.67;16.63;;;;;;;3.45;75.60;94753.53;5005058;28;20053;-69
2024/02/17 07:25:54;;;;;;;46.00;19.05;;;;;;;3.46;75.57;94744.59;5005353;28;20321;-71
2024/02/17 07:28:19;;;;;;;44.95;16.17;;;;;;;3.60;75.31;94751.88;5005371;28;20037;-69
2024/02/17 07:30:45;;;;;;;41.83;16.65;;;;;;;3.74;74.82;94754.91;5005062;28;20347;-69
2024/02/17 07:33:10;;;;;;;30.88;14.90;;;;;;;3.80;74.80;94748.66;5005175;28;20018;-68
2024/02/17 07:35:40;;;;;;;41.10;16.33;;;;;;;3.85;74.84;94755.00;5005213;28;20026;-68
2024/02/17 07:38:06;;;;;;;40.45;16.48;;;;;;;3.90;74.64;94747.16;5005071;28;20018;-69
2024/02/17 07:40:31;;;;;;;36.47;16.08;;;;;;;3.96;74.65;94764.63;5003896;28;20072;-69
2024/02/17 07:42:57;;;;;;;34.97;16.15;;;;;;;4.07;73.84;94747.88;5005025;28;20022;-69
2024/02/17 07:45:22;;;;;;;33.90;15.48;;;;;;;4.16;73.76;94749.00;5004653;28;20356;-69
2024/02/17 07:47:47;;;;;;;39.75;17.20;;;;;;;4.22;73.38;94750.63;5004614;28;20046;-70
2024/02/17 07:50:13;;;;;;;34.15;15.00;;;;;;;4.27;73.31;94759.63;5004790;28;20022;-70
2024/02/17 07:52:39;;;;;;;31.48;14.77;;;;;;;4.34;73.30;94747.81;5003876;28;20343;-68
2024/02/17 07:55:04;;;;;;;25.42;15.13;;;;;;;4.40;72.97;94744.19;5004640;28;20061;-69
2024/02/17 07:57:30;;;;;;;30.55;15.48;;;;;;;4.52;72.90;94741.38;5004780;28;20296;-69
2024/02/17 07:59:55;;;;;;;32.30;16.13;;;;;;;4.56;72.73;94742.47;5004814;28;20030;-69
2024/02/17 08:02:21;;;;;;;32.22;16.55;;;;;;;4.33;73.17;94742.78;5004650;28;20260;-69
2024/02/17 08:04:47;;;;;;;30.55;15.73;;;;;;;4.51;72.96;94745.03;5004676;28;20033;-69
2024/02/17 08:07:13;;;;;;;27.52;13.90;;;;;;;4.63;72.50;94740.38;5004817;28;20082;-70
2024/02/17 08:09:40;;;;;;;29.50;13.48;;;;;;;4.74;72.23;94737.81;5004777;28;20045;-70
2024/02/17 08:12:06;;;;;;;31.00;13.98;;;;;;;4.87;70.94;94758.50;5004365;28;20343;-70
2024/02/17 08:14:31;;;;;;;33.33;15.30;;;;;;;4.94;71.01;94748.50;5004711;28;20089;-70
2024/02/17 08:16:57;;;;;;;32.53;15.35;;;;;;;4.93;71.17;94746.91;5004422;28;20036;-70
2024/02/17 08:19:22;;;;;;;28.13;15.02;;;;;;;4.93;71.07;94752.19;5004397;28;20026;-68
2024/02/17 08:21:48;;;;;;;32.13;16.95;;;;;;;5.02;71.24;94747.22;5004037;28;20109;-69
2024/02/17 08:24:13;;;;;;;36.28;15.23;;;;;;;5.05;70.66;94753.84;5004138;28;20022;-69
2024/02/17 08:26:38;;;;;;;43.20;17.52;;;;;;;5.10;71.02;94757.31;5004375;28;20057;-69
2024/02/17 08:29:04;;;;;;;32.05;15.35;;;;;;;5.18;71.01;94759.47;5003940;28;20037;-69
2024/02/17 08:31:29;;;;;;;27.63;15.30;;;;;;;5.31;70.45;94755.59;5004076;28;20232;-69
2024/02/17 08:33:54;;;;;;;37.05;16.23;;;;;;;5.41;70.24;94762.75;5003901;28;20014;-69
2024/02/17 08:36:20;;;;;;;34.90;16.15;;;;;;;5.56;69.83;94751.44;5004058;28;20097;-69
2024/02/17 08:38:45;;;;;;;29.25;14.70;;;;;;;5.60;68.77;94757.81;5003863;28;20037;-69
2024/02/17 08:41:11;;;;;;;37.40;15.57;;;;;;;5.54;69.23;94753.56;5003881;28;20029;-69
2024/02/17 08:43:37;;;;;;;32.22;15.57;;;;;;;5.73;68.61;94759.94;5003621;28;20057;-69
2024/02/17 08:46:03;;;;;;;31.95;15.90;;;;;;;5.93;68.11;94761.06;5003580;28;20033;-69
2024/02/17 08:48:28;;;;;;;31.27;15.70;;;;;;;6.00;67.54;94759.81;5004072;28;20045;-69
2024/02/17 08:50:54;;;;;;;26.92;13.95;;;;;;;6.15;67.08;94758.25;5003681;28;20110;-69
2024/02/17 08:53:19;;;;;;;26.40;13.30;;;;;;;6.28;66.66;94764.88;5003624;28;20213;-69
2024/02/17 08:55:45;;;;;;;26.00;12.60;;;;;;;6.33;65.19;94757.72;5003517;28;20037;-69
2024/02/17 08:58:10;;;;;;;30.20;13.93;;;;;;;6.36;64.85;94764.34;5003470;28;20109;-69
2024/02/17 09:00:37;;;;;;;37.08;14.15;;;;;;;6.45;65.37;94768.03;5003537;28;20269;-69
2024/02/17 09:03:02;;;;;;;28.58;13.07;;;;;;;6.44;64.71;94769.13;5003421;28;20106;-69
2024/02/17 09:05:28;;;;;;;30.52;14.30;;;;;;;6.54;64.54;94769.13;5003520;28;20097;-69
2024/02/17 09:07:54;;;;;;;25.20;12.80;;;;;;;6.63;64.21;94767.53;5003608;28;20094;-69
2024/02/17 09:10:19;;;;;;;26.70;11.82;;;;;;;6.79;63.87;94770.16;5002311;28;20225;-70
2024/02/17 09:12:44;;;;;;;38.45;12.18;;;;;;;6.82;63.18;94759.03;5003322;28;20042;-70
2024/02/17 09:15:10;;;;;;;19.40;11.13;;;;;;;6.93;63.04;94771.19;5003377;28;20316;-70
2024/02/17 09:17:36;;;;;;;25.05;12.80;;;;;;;6.99;62.53;94772.78;5003293;28;20158;-70
2024/02/17 09:20:05;;;;;;;27.13;11.43;;;;;;;7.09;62.36;94773.84;5003492;28;20061;-70
2024/02/17 09:22:31;;;;;;;25.13;10.88;;;;;;;7.23;60.77;94761.63;5003577;28;20097;-70
2024/02/17 09:24:56;;;;;;;21.38;12.23;;;;;;;7.29;60.64;94771.16;5003303;28;20063;-70
2024/02/17 09:27:22;;;;;;;28.75;10.18;;;;;;;7.35;59.81;94772.72;5003114;28;20361;-70
2024/02/17 09:29:47;;;;;;;25.08;10.27;;;;;;;7.43;59.79;94764.19;5003250;28;20029;-70
2024/02/17 09:32:14;;;;;;;24.13;10.50;;;;;;;7.51;60.00;94772.66;5003070;28;20034;-69
2024/02/17 09:34:40;;;;;;;25.05;10.73;;;;;;;7.63;59.48;94767.81;5002821;28;20300;-69
2024/02/17 09:37:08;;;;;;;20.10;11.05;;;;;;;7.74;59.75;94771.25;5003060;28;20054;-69
2024/02/17 09:39:35;;;;;;;20.40;10.48;;;;;;;7.87;59.23;94761.88;5002092;28;20072;-69
2024/02/17 09:42:00;;;;;;;20.65;10.32;;;;;;;7.88;58.59;94763.50;5003120;28;20094;-70
2024/02/17 09:44:26;;;;;;;17.45;8.98;;;;;;;8.04;57.99;94765.78;5003139;28;20049;-69
2024/02/17 09:46:52;;;;;;;21.92;10.15;;;;;;;8.14;58.19;94764.13;5003027;28;20374;-70
2024/02/17 09:49:23;;;;;;;25.35;9.55;;;;;;;8.27;56.35;94766.19;5002819;28;20038;-70
2024/02/17 09:51:49;;;;;;;23.08;9.00;;;;;;;8.38;56.41;94766.88;5003125;28;20033;-70
2024/02/17 09:54:20;;;;;;;14.18;7.55;;;;;;;8.49;55.73;94764.97;5002847;28;20054;-70
2024/02/17 09:56:48;;;;;;;20.00;8.33;;;;;;;8.57;55.14;94762.53;5003062;28;20026;-70
2024/02/17 09:59:13;;;;;;;17.33;8.95;;;;;;;8.58;55.18;94761.47;5002971;28;20224;-70
2024/02/17 10:01:39;;;;;;;21.17;9.60;;;;;;;8.57;54.65;94757.22;5002712;28;20037;-70
2024/02/17 10:04:06;;;;;;;17.85;9.60;;;;;;;8.54;55.17;94755.09;5002853;28;20041;-70
2024/02/17 10:06:31;;;;;;;13.07;7.30;;;;;;;8.71;53.46;94751.25;5003059;28;20026;-70
2024/02/17 10:08:57;;;;;;;13.77;8.10;;;;;;;8.64;53.65;94743.63;5002940;28;20096;-70
2024/02/17 10:11:23;;;;;;;21.42;8.95;;;;;;;8.68;54.06;94736.66;5002869;28;20030;-69
2024/02/17 10:14:00;;;;;;;13.55;8.02;;;;;;;8.76;53.90;94741.38;5002943;28;20102;-69
2024/02/17 10:16:29;;;;;;;22.70;9.75;;;;;;;8.92;53.56;94747.34;5004372;28;20037;-70
2024/02/17 10:18:58;;;;;;;18.85;9.05;;;;;;;8.93;52.37;94732.97;5006725;28;20037;-70
2024/02/17 10:21:23;;;;;;;19.73;9.73;;;;;;;8.99;52.67;94720.44;5006426;28;20053;-70
2024/02/17 10:23:49;;;;;;;16.10;8.90;;;;;;;9.07;53.28;94727.78;5006481;28;20202;-70
2024/02/17 10:26:15;;;;;;;20.33;10.48;;;;;;;9.17;52.54;94724.25;5006316;28;20034;-70
2024/02/17 10:28:40;;;;;;;20.63;10.65;;;;;;;9.21;51.92;94722.59;5006373;28;20097;-70
2024/02/17 10:31:06;;;;;;;17.17;8.90;;;;;;;9.19;50.70;94717.56;5006170;28;20068;-70
2024/02/17 10:33:31;;;;;;;15.98;8.75;;;;;;;9.21;51.10;94725.25;5006373;28;20266;-70
2024/02/17 10:35:57;;;;;;;18.88;8.60;;;;;;;9.32;50.82;94715.28;5005022;28;20014;-70
2024/02/17 10:38:26;;;;;;;17.25;9.35;;;;;;;9.35;50.79;94725.38;5005013;28;20376;-71
2024/02/17 10:40:52;;;;;;;16.40;8.68;;;;;;;9.48;50.77;94731.88;5006437;28;20018;-71
2024/02/17 10:43:18;;;;;;;23.10;9.88;;;;;;;9.63;50.74;94734.38;5006103;28;20030;-70
2024/02/17 10:45:44;;;;;;;15.65;8.60;;;;;;;9.76;49.44;94730.19;5005856;28;20096;-70
2024/02/17 10:48:10;;;;;;;21.83;8.98;;;;;;;9.90;48.77;94731.06;5006060;28;20027;-70
2024/02/17 10:50:40;;;;;;;26.40;8.95;;;;;;;10.04;47.74;94731.16;5005927;28;20015;-70
2024/02/17 10:53:40;;;;;;;17.20;8.77;;;;;;;9.98;47.38;94729.66;5005770;28;20045;-70
2024/02/17 10:56:13;;;;;;;18.05;9.10;;;;;;;10.01;47.84;94734.38;5005597;28;20372;-70
2024/02/17 10:58:40;;;;;;;17.45;9.38;;;;;;;10.01;47.99;94729.06;5005578;28;20257;-70
2024/02/17 11:01:08;;;;;;;17.67;9.00;;;;;;;10.10;47.48;94727.34;5005606;28;20022;-70
2024/02/17 11:03:37;;;;;;;27.42;10.90;;;;;;;10.21;47.82;94725.31;5005477;28;20034;-69
2024/02/17 11:06:06;;;;;;;22.38;10.75;;;;;;;10.33;48.56;94717.69;5005492;28;20026;-70
2024/02/17 11:08:33;;;;;;;22.52;10.48;;;;;;;10.50;48.33;94708.38;5005521;28;20084;-70
2024/02/17 11:11:24;;;;;;;19.67;10.52;;;;;;;10.67;47.48;94702.53;5005616;28;20018;-70
2024/02/17 11:13:53;;;;;;;25.50;10.52;;;;;;;10.83;46.05;94709.97;5005299;28;20018;-70
2024/02/17 11:16:19;;;;;;;14.45;8.35;;;;;;;10.87;44.41;94710.19;5004999;28;20026;-70
2024/02/17 11:18:49;;;;;;;16.98;9.45;;;;;;;10.87;44.49;94704.84;5005430;28;20041;-70
2024/02/17 11:21:14;;;;;;;17.55;8.85;;;;;;;10.79;45.03;94700.97;5005222;28;20089;-70
2024/02/17 11:23:41;;;;;;;18.70;8.85;;;;;;;10.83;44.96;94696.63;5004973;28;20319;-70
2024/02/17 11:26:17;;;;;;;19.40;8.65;;;;;;;10.96;45.29;94687.06;5004966;28;20034;-70